createdAt,value
2018-05-31T00:01:00.736Z,100324.78
2018-05-31T00:02:06.972Z,100324.36
2018-05-31T00:03:13.477Z,100320.73
2018-05-31T00:04:20.073Z,100318.05
2018-05-31T00:05:26.204Z,100314.11
2018-05-31T00:06:32.397Z,100317.39
2018-05-31T00:07:38.733Z,100316.62
2018-05-31T00:08:48.829Z,100313.50
2018-05-31T00:09:55.517Z,100309.61
2018-05-31T00:11:01.864Z,100309.47
2018-05-31T00:12:07.913Z,100301.20
2018-05-31T00:13:13.933Z,100304.36
2018-05-31T00:14:20.084Z,100304.17
2018-05-31T00:15:26.187Z,100307.75
2018-05-31T00:16:32.574Z,100302.47
2018-05-31T00:17:38.670Z,100302.92
2018-05-31T00:18:45.436Z,100296.30
2018-05-31T00:19:51.499Z,100300.26
2018-05-31T00:20:57.855Z,100299.75
2018-05-31T00:22:04.241Z,100306.64
2018-05-31T00:23:10.436Z,100304.34
2018-05-31T00:24:16.756Z,100299.75
2018-05-31T00:25:24.232Z,100305.32
2018-05-31T00:26:30.480Z,100299.65
2018-05-31T00:27:36.841Z,100294.86
2018-05-31T00:28:49.931Z,100301.58
2018-05-31T00:29:56.537Z,100298.49
2018-05-31T00:31:03.903Z,100299.59
2018-05-31T00:32:10.243Z,100303.22
2018-05-31T00:33:16.598Z,100305.73
2018-05-31T00:34:23.827Z,100307.84
2018-05-31T00:35:33.014Z,100307.97
2018-05-31T00:36:40.457Z,100307.97
2018-05-31T00:37:46.691Z,100314.99
2018-05-31T00:38:53.274Z,100314.42
2018-05-31T00:39:59.630Z,100298.38
2018-05-31T00:41:06.004Z,100304.29
2018-05-31T00:42:12.282Z,100304.69
2018-05-31T00:43:19.290Z,100299.38
2018-05-31T00:44:25.568Z,100294.75
2018-05-31T00:45:32.644Z,100297.23
2018-05-31T00:46:39.084Z,100297.13
2018-05-31T00:47:45.791Z,100295.57
2018-05-31T00:48:52.131Z,100297.33
2018-05-31T00:50:02.371Z,100294.97
2018-05-31T00:51:13.568Z,100301.76
2018-05-31T00:52:20.482Z,100298.48
2018-05-31T00:53:32.706Z,100298.81
2018-05-31T00:54:39.592Z,100296.11
2018-05-31T00:55:57.229Z,100302.72
2018-05-31T00:57:03.317Z,100303.42
2018-05-31T00:58:14.863Z,100296.82
2018-05-31T00:59:22.094Z,100300.45
2018-05-31T01:00:28.576Z,100302.44
2018-05-31T01:01:34.106Z,100301.73
2018-05-31T01:02:40.373Z,100300.39
2018-05-31T01:03:47.273Z,100298.78
2018-05-31T01:04:53.484Z,100304.42
2018-05-31T01:06:00.444Z,100302.62
2018-05-31T01:07:09.035Z,100303.61
2018-05-31T01:08:15.968Z,100310.21
2018-05-31T01:09:22.216Z,100307.98
2018-05-31T01:10:29.001Z,100305.65
2018-05-31T01:11:35.624Z,100305.26
2018-05-31T01:12:41.896Z,100301.80
2018-05-31T01:13:48.230Z,100299.20
2018-05-31T01:14:54.246Z,100301.23
2018-05-31T01:16:00.422Z,100305.98
2018-05-31T01:17:11.403Z,100309.31
2018-05-31T01:18:17.789Z,100310.30
2018-05-31T01:19:24.087Z,100317.08
2018-05-31T01:20:30.858Z,100317.08
2018-05-31T01:21:37.507Z,100314.28
2018-05-31T01:22:44.907Z,100316.75
2018-05-31T01:23:51.186Z,100316.21
2018-05-31T01:24:57.646Z,100318.19
2018-05-31T01:26:04.025Z,100309.98
2018-05-31T01:27:10.344Z,100312.08
2018-05-31T01:28:17.154Z,100319.44
2018-05-31T01:29:24.223Z,100317.02
2018-05-31T01:30:30.246Z,100322.09
2018-05-31T01:31:37.060Z,100324.58
2018-05-31T01:32:44.526Z,100332.00
2018-05-31T01:33:50.881Z,100333.72
2018-05-31T01:34:57.797Z,100334.34
2018-05-31T01:36:04.405Z,100330.78
2018-05-31T01:37:11.226Z,100330.70
2018-05-31T01:38:29.391Z,100321.82
2018-05-31T01:39:35.418Z,100321.05
2018-05-31T01:40:42.197Z,100319.81
2018-05-31T01:41:48.556Z,100324.77
2018-05-31T01:42:55.594Z,100317.19
2018-05-31T01:44:01.652Z,100320.16
2018-05-31T01:45:08.924Z,100317.69
2018-05-31T01:46:15.237Z,100314.19
2018-05-31T01:47:22.082Z,100317.98
2018-05-31T01:48:29.908Z,100318.08
2018-05-31T01:49:37.347Z,100319.62
2018-05-31T01:50:44.148Z,100318.33
2018-05-31T01:51:50.377Z,100325.78
2018-05-31T01:52:57.304Z,100317.66
2018-05-31T01:54:03.810Z,100318.78
2018-05-31T01:55:10.231Z,100319.62
2018-05-31T01:56:16.748Z,100318.39
2018-05-31T01:57:23.660Z,100321.81
2018-05-31T01:58:30.736Z,100320.24
2018-05-31T01:59:37.025Z,100320.53
2018-05-31T02:00:44.149Z,100327.98
2018-05-31T02:01:51.113Z,100322.41
2018-05-31T02:02:57.496Z,100317.46
2018-05-31T02:04:04.727Z,100321.13
2018-05-31T02:05:11.580Z,100318.86
2018-05-31T02:06:17.945Z,100322.12
2018-05-31T02:07:24.893Z,100319.16
2018-05-31T02:08:31.160Z,100323.16
2018-05-31T02:09:37.473Z,100324.25
2018-05-31T02:10:43.459Z,100328.89
2018-05-31T02:11:49.428Z,100316.48
2018-05-31T02:12:55.500Z,100315.41
2018-05-31T02:14:01.493Z,100306.86
2018-05-31T02:15:08.517Z,100305.27
2018-05-31T02:16:14.935Z,100309.53
2018-05-31T02:17:22.197Z,100312.26
2018-05-31T02:18:28.500Z,100308.98
2018-05-31T02:19:34.688Z,100303.78
2018-05-31T02:20:41.614Z,100308.80
2018-05-31T02:21:47.926Z,100307.00
2018-05-31T02:22:54.277Z,100309.81
2018-05-31T02:24:00.565Z,100309.62
2018-05-31T02:25:06.641Z,100312.84
2018-05-31T02:26:13.072Z,100307.64
2018-05-31T02:27:19.629Z,100309.37
2018-05-31T02:28:25.853Z,100311.16
2018-05-31T02:29:32.145Z,100314.20
2018-05-31T02:30:38.425Z,100312.94
2018-05-31T02:31:44.742Z,100312.85
2018-05-31T02:32:51.090Z,100316.59
2018-05-31T02:33:57.324Z,100317.86
2018-05-31T02:35:03.367Z,100322.47
2018-05-31T02:36:10.601Z,100322.71
2018-05-31T02:37:16.906Z,100323.52
2018-05-31T02:38:23.382Z,100325.72
2018-05-31T02:39:29.739Z,100328.52
2018-05-31T02:40:35.720Z,100321.94
2018-05-31T02:41:42.042Z,100321.47
2018-05-31T02:42:48.118Z,100317.14
2018-05-31T02:43:54.388Z,100305.50
2018-05-31T02:45:00.825Z,100313.61
2018-05-31T02:46:07.408Z,100307.30
2018-05-31T02:47:15.445Z,100304.42
2018-05-31T02:48:21.990Z,100313.05
2018-05-31T02:49:28.532Z,100318.45
2018-05-31T02:50:35.033Z,100315.08
2018-05-31T02:51:41.523Z,100305.27
2018-05-31T02:52:48.175Z,100307.50
2018-05-31T02:53:54.691Z,100312.17
2018-05-31T02:55:01.270Z,100306.95
2018-05-31T02:56:07.580Z,100306.98
2018-05-31T02:57:13.876Z,100305.91
2018-05-31T02:58:20.247Z,100306.20
2018-05-31T02:59:26.558Z,100307.68
2018-05-31T03:00:32.842Z,100303.65
2018-05-31T03:01:38.849Z,100304.13
2018-05-31T03:02:45.146Z,100308.94
2018-05-31T03:03:51.504Z,100307.94
2018-05-31T03:04:57.808Z,100311.67
2018-05-31T03:06:04.085Z,100306.35
2018-05-31T03:07:10.124Z,100311.47
2018-05-31T03:08:18.151Z,100306.72
2018-05-31T03:09:27.207Z,100305.17
2018-05-31T03:10:33.965Z,100308.07
2018-05-31T03:11:41.153Z,100304.22
2018-05-31T03:12:47.384Z,100303.67
2018-05-31T03:13:53.649Z,100309.34
2018-05-31T03:14:59.937Z,100303.50
2018-05-31T03:16:06.053Z,100301.25
2018-05-31T03:17:12.475Z,100308.17
2018-05-31T03:18:18.772Z,100306.98
2018-05-31T03:19:25.086Z,100307.26
2018-05-31T03:20:31.413Z,100309.52
2018-05-31T03:21:37.652Z,100302.35
2018-05-31T03:22:44.008Z,100307.63
2018-05-31T03:23:50.344Z,100300.32
2018-05-31T03:24:56.343Z,100297.59
2018-05-31T03:26:02.730Z,100302.80
2018-05-31T03:27:09.688Z,100305.73
2018-05-31T03:28:16.838Z,100311.52
2018-05-31T03:29:23.107Z,100309.30
2018-05-31T03:30:29.392Z,100309.68
2018-05-31T03:31:35.731Z,100305.60
2018-05-31T03:32:42.140Z,100315.18
2018-05-31T03:33:48.573Z,100305.83
2018-05-31T03:34:54.873Z,100313.45
2018-05-31T03:36:01.261Z,100308.59
2018-05-31T03:37:07.257Z,100303.45
2018-05-31T03:38:13.825Z,100307.43
2018-05-31T03:39:20.547Z,100306.75
2018-05-31T03:40:26.963Z,100309.81
2018-05-31T03:41:33.542Z,100304.95
2018-05-31T03:42:39.847Z,100310.26
2018-05-31T03:43:46.501Z,100305.75
2018-05-31T03:44:53.947Z,100311.67
2018-05-31T03:46:00.425Z,100313.23
2018-05-31T03:47:09.101Z,100315.84
2018-05-31T03:48:15.646Z,100312.34
2018-05-31T03:49:22.466Z,100310.06
2018-05-31T03:50:28.464Z,100313.67
2018-05-31T03:51:34.756Z,100307.73
2018-05-31T03:52:41.061Z,100306.67
2018-05-31T03:53:47.479Z,100305.41
2018-05-31T03:54:53.617Z,100305.05
2018-05-31T03:56:00.545Z,100303.08
2018-05-31T03:57:08.352Z,100303.32
2018-05-31T03:58:15.019Z,100311.10
2018-05-31T03:59:21.713Z,100298.83
2018-05-31T04:00:28.879Z,100302.55
2018-05-31T04:01:35.163Z,100303.08
2018-05-31T04:02:41.660Z,100297.69
2018-05-31T04:03:47.966Z,100304.98
2018-05-31T04:04:54.317Z,100301.20
2018-05-31T04:06:00.590Z,100302.19
2018-05-31T04:07:06.920Z,100300.25
2018-05-31T04:08:12.943Z,100301.67
2018-05-31T04:09:19.241Z,100303.70
2018-05-31T04:10:25.925Z,100305.64
2018-05-31T04:11:32.573Z,100308.77
2018-05-31T04:12:39.602Z,100307.85
2018-05-31T04:13:46.220Z,100307.35
2018-05-31T04:14:53.184Z,100310.06
2018-05-31T04:15:59.465Z,100312.44
2018-05-31T04:17:05.769Z,100316.94
2018-05-31T04:18:12.068Z,100316.97
2018-05-31T04:19:22.410Z,100307.63
2018-05-31T04:20:32.419Z,100314.86
2018-05-31T04:21:41.105Z,100309.02
2018-05-31T04:22:47.753Z,100299.95
2018-05-31T04:23:54.064Z,100314.13
2018-05-31T04:25:00.412Z,100308.63
2018-05-31T04:26:06.700Z,100308.61
2018-05-31T04:27:13.013Z,100305.75
2018-05-31T04:28:19.316Z,100306.16
2018-05-31T04:29:25.644Z,100301.09
2018-05-31T04:30:33.267Z,100298.81
2018-05-31T04:31:40.192Z,100301.16
2018-05-31T04:32:46.504Z,100301.70
2018-05-31T04:33:52.836Z,100301.47
2018-05-31T04:34:59.409Z,100297.03
2018-05-31T04:36:05.681Z,100305.98
2018-05-31T04:37:11.958Z,100306.05
2018-05-31T04:38:18.279Z,100301.03
2018-05-31T04:39:24.302Z,100304.59
2018-05-31T04:40:32.638Z,100308.34
2018-05-31T04:41:38.919Z,100302.14
2018-05-31T04:42:46.177Z,100307.91
2018-05-31T04:43:52.185Z,100310.52
2018-05-31T04:44:58.511Z,100305.37
2018-05-31T04:46:04.788Z,100311.48
2018-05-31T04:47:11.119Z,100314.61
2018-05-31T04:48:17.460Z,100312.01
2018-05-31T04:49:23.785Z,100314.05
2018-05-31T04:50:30.317Z,100315.94
2018-05-31T04:51:36.591Z,100318.25
2018-05-31T04:52:42.812Z,100316.26
2018-05-31T04:53:49.106Z,100309.34
2018-05-31T04:54:55.398Z,100314.47
2018-05-31T04:56:01.712Z,100315.19
2018-05-31T04:57:08.154Z,100319.50
2018-05-31T04:58:14.465Z,100319.45
2018-05-31T04:59:20.760Z,100320.13
2018-05-31T05:00:27.100Z,100320.91
2018-05-31T05:01:33.422Z,100318.63
2018-05-31T05:02:39.798Z,100319.72
2018-05-31T05:03:48.108Z,100323.48
2018-05-31T05:04:54.377Z,100320.07
2018-05-31T05:06:00.697Z,100320.27
2018-05-31T05:07:07.094Z,100325.91
2018-05-31T05:08:14.473Z,100333.26
2018-05-31T05:09:20.769Z,100324.33
2018-05-31T05:10:27.106Z,100326.14
2018-05-31T05:11:33.365Z,100321.50
2018-05-31T05:12:39.668Z,100327.09
2018-05-31T05:13:46.003Z,100322.19
2018-05-31T05:14:53.259Z,100322.67
2018-05-31T05:15:59.705Z,100322.11
2018-05-31T05:17:05.507Z,100324.97
2018-05-31T05:18:11.855Z,100329.55
2018-05-31T05:19:18.189Z,100328.80
2018-05-31T05:20:24.592Z,100331.11
2018-05-31T05:21:31.190Z,100323.94
2018-05-31T05:22:38.091Z,100323.42
2018-05-31T05:23:44.417Z,100322.23
2018-05-31T05:24:51.790Z,100319.70
2018-05-31T05:25:58.108Z,100324.10
2018-05-31T05:27:04.357Z,100328.65
2018-05-31T05:28:10.697Z,100324.47
2018-05-31T05:29:17.010Z,100319.64
2018-05-31T05:30:23.651Z,100324.00
2018-05-31T05:31:30.144Z,100327.99
2018-05-31T05:32:36.683Z,100329.36
2018-05-31T05:33:43.184Z,100330.28
2018-05-31T05:34:49.368Z,100334.31
2018-05-31T05:35:56.031Z,100334.91
2018-05-31T05:37:03.440Z,100336.19
2018-05-31T05:38:10.480Z,100335.00
2018-05-31T05:39:16.124Z,100329.92
2018-05-31T05:40:22.211Z,100337.66
2018-05-31T05:41:28.488Z,100338.87
2018-05-31T05:42:34.813Z,100336.67
2018-05-31T05:43:41.027Z,100339.58
2018-05-31T05:44:52.979Z,100330.81
2018-05-31T05:46:04.780Z,100340.20
2018-05-31T05:47:11.304Z,100340.73
2018-05-31T05:48:17.620Z,100336.22
2018-05-31T05:49:24.851Z,100333.89
2018-05-31T05:50:31.197Z,100336.81
2018-05-31T05:51:37.490Z,100339.99
2018-05-31T05:52:44.034Z,100339.16
2018-05-31T05:53:50.248Z,100340.52
2018-05-31T05:54:56.526Z,100340.16
2018-05-31T05:56:02.870Z,100345.48
2018-05-31T05:57:09.140Z,100343.26
2018-05-31T05:58:15.480Z,100339.92
2018-05-31T05:59:21.452Z,100340.89
2018-05-31T06:00:27.792Z,100343.11
2018-05-31T06:01:34.116Z,100341.26
2018-05-31T06:02:40.207Z,100339.34
2018-05-31T06:03:46.596Z,100337.98
2018-05-31T06:04:52.910Z,100343.13
2018-05-31T06:05:59.246Z,100341.16
2018-05-31T06:07:05.558Z,100335.87
2018-05-31T06:08:12.428Z,100341.19
2018-05-31T06:09:19.604Z,100346.02
2018-05-31T06:10:25.901Z,100343.00
2018-05-31T06:11:32.485Z,100337.69
2018-05-31T06:12:38.742Z,100340.69
2018-05-31T06:13:44.684Z,100333.87
2018-05-31T06:14:51.068Z,100333.41
2018-05-31T06:15:56.898Z,100330.41
2018-05-31T06:17:02.986Z,100329.31
2018-05-31T06:18:09.466Z,100337.29
2018-05-31T06:19:15.813Z,100331.91
2018-05-31T06:20:22.141Z,100333.92
2018-05-31T06:21:28.437Z,100336.28
2018-05-31T06:22:34.721Z,100336.73
2018-05-31T06:23:41.018Z,100331.33
2018-05-31T06:24:47.352Z,100332.87
2018-05-31T06:25:53.705Z,100328.37
2018-05-31T06:26:59.984Z,100330.50
2018-05-31T06:28:06.286Z,100331.98
2018-05-31T06:29:12.582Z,100331.00
2018-05-31T06:30:18.919Z,100327.60
2018-05-31T06:31:25.273Z,100335.92
2018-05-31T06:32:31.538Z,100332.24
2018-05-31T06:33:37.870Z,100339.16
2018-05-31T06:34:44.360Z,100334.33
2018-05-31T06:35:50.744Z,100332.30
2018-05-31T06:36:57.677Z,100336.89
2018-05-31T06:38:03.349Z,100337.40
2018-05-31T06:39:09.301Z,100338.32
2018-05-31T06:40:15.327Z,100338.88
2018-05-31T06:41:21.448Z,100336.27
2018-05-31T06:42:27.697Z,100337.80
2018-05-31T06:43:34.038Z,100339.87
2018-05-31T06:44:41.629Z,100341.89
2018-05-31T06:45:47.601Z,100342.59
2018-05-31T06:46:54.025Z,100337.02
2018-05-31T06:48:00.464Z,100337.55
2018-05-31T06:49:06.861Z,100335.47
2018-05-31T06:50:13.169Z,100340.62
2018-05-31T06:51:19.576Z,100345.08
2018-05-31T06:52:25.822Z,100342.64
2018-05-31T06:53:32.205Z,100335.51
2018-05-31T06:54:39.318Z,100336.58
2018-05-31T06:55:45.625Z,100338.10
2018-05-31T06:56:52.775Z,100344.17
2018-05-31T06:57:59.168Z,100335.05
2018-05-31T06:59:05.428Z,100337.65
2018-05-31T07:00:12.450Z,100334.73
2018-05-31T07:01:19.447Z,100335.45
2018-05-31T07:02:25.736Z,100336.60
2018-05-31T07:03:32.051Z,100341.84
2018-05-31T07:04:38.410Z,100343.67
2018-05-31T07:05:44.679Z,100342.00
2018-05-31T07:06:51.045Z,100340.98
2018-05-31T07:07:57.316Z,100343.94
2018-05-31T07:09:06.040Z,100341.17
2018-05-31T07:10:12.312Z,100345.34
2018-05-31T07:11:18.710Z,100340.85
2018-05-31T07:12:25.049Z,100348.09
2018-05-31T07:13:31.470Z,100347.22
2018-05-31T07:14:37.773Z,100340.11
2018-05-31T07:15:45.167Z,100336.45
2018-05-31T07:16:52.066Z,100339.55
2018-05-31T07:17:57.951Z,100337.67
2018-05-31T07:19:04.233Z,100335.36
2018-05-31T07:20:10.553Z,100341.81
2018-05-31T07:21:16.867Z,100340.48
2018-05-31T07:22:23.773Z,100342.61
2018-05-31T07:23:30.214Z,100350.49
2018-05-31T07:24:36.502Z,100343.86
2018-05-31T07:25:42.827Z,100339.41
2018-05-31T07:26:49.105Z,100345.41
2018-05-31T07:27:56.166Z,100345.20
2018-05-31T07:29:02.453Z,100340.16
2018-05-31T07:30:15.848Z,100344.04
2018-05-31T07:31:22.964Z,100346.00
2018-05-31T07:32:29.783Z,100344.53
2018-05-31T07:33:35.843Z,100344.98
2018-05-31T07:34:42.202Z,100346.88
2018-05-31T07:35:48.504Z,100341.15
2018-05-31T07:36:54.869Z,100337.31
2018-05-31T07:38:01.173Z,100340.42
2018-05-31T07:39:07.452Z,100336.58
2018-05-31T07:40:13.763Z,100343.89
2018-05-31T07:41:20.072Z,100339.09
2018-05-31T07:42:26.453Z,100345.37
2018-05-31T07:43:32.693Z,100345.31
2018-05-31T07:44:39.007Z,100344.56
2018-05-31T07:45:45.148Z,100350.23
2018-05-31T07:46:51.428Z,100339.75
2018-05-31T07:47:58.496Z,100337.91
2018-05-31T07:49:04.710Z,100337.52
2018-05-31T07:50:11.022Z,100346.63
2018-05-31T07:51:17.331Z,100344.95
2018-05-31T07:52:23.946Z,100336.13
2018-05-31T07:53:30.245Z,100344.64
2018-05-31T07:54:36.558Z,100339.33
2018-05-31T07:55:42.848Z,100344.36
2018-05-31T07:56:49.270Z,100346.67
2018-05-31T07:57:55.608Z,100352.28
2018-05-31T07:59:01.895Z,100347.92
2018-05-31T08:00:13.274Z,100344.04
2018-05-31T08:01:20.543Z,100348.05
2018-05-31T08:02:26.889Z,100346.08
2018-05-31T08:03:33.988Z,100347.59
2018-05-31T08:04:40.312Z,100346.02
2018-05-31T08:05:46.672Z,100344.78
2018-05-31T08:06:53.274Z,100348.44
2018-05-31T08:07:59.569Z,100347.77
2018-05-31T08:09:06.052Z,100352.41
2018-05-31T08:10:12.062Z,100350.10
2018-05-31T08:11:18.419Z,100355.25
2018-05-31T08:12:32.867Z,100351.99
2018-05-31T08:13:38.821Z,100352.67
2018-05-31T08:14:44.888Z,100349.61
2018-05-31T08:15:56.521Z,100349.20
2018-05-31T08:17:02.644Z,100348.73
2018-05-31T08:18:09.970Z,100353.61
2018-05-31T08:19:16.505Z,100357.02
2018-05-31T08:20:22.838Z,100355.30
2018-05-31T08:21:29.137Z,100352.31
2018-05-31T08:22:35.260Z,100349.76
2018-05-31T08:23:41.683Z,100353.94
2018-05-31T08:24:47.640Z,100349.27
2018-05-31T08:25:54.048Z,100346.05
2018-05-31T08:27:00.362Z,100350.10
2018-05-31T08:28:06.412Z,100348.34
2018-05-31T08:29:13.026Z,100348.63
2018-05-31T08:30:19.123Z,100343.42
2018-05-31T08:31:25.564Z,100346.77
2018-05-31T08:32:32.166Z,100343.75
2018-05-31T08:33:38.850Z,100348.22
2018-05-31T08:34:45.689Z,100343.34
2018-05-31T08:35:51.811Z,100343.30
2018-05-31T08:36:58.992Z,100346.39
2018-05-31T08:38:05.248Z,100336.66
2018-05-31T08:39:10.941Z,100341.63
2018-05-31T08:40:22.353Z,100342.31
2018-05-31T08:41:28.119Z,100344.77
2018-05-31T08:42:33.925Z,100344.06
2018-05-31T08:43:40.055Z,100344.32
2018-05-31T08:44:46.093Z,100345.41
2018-05-31T08:45:52.159Z,100349.10
2018-05-31T08:46:58.255Z,100343.80
2018-05-31T08:48:04.413Z,100347.62
2018-05-31T08:49:10.407Z,100348.22
2018-05-31T08:50:16.554Z,100347.95
2018-05-31T08:51:22.664Z,100351.50
2018-05-31T08:52:28.970Z,100350.39
2018-05-31T08:53:35.089Z,100344.09
2018-05-31T08:54:42.783Z,100350.16
2018-05-31T08:55:48.901Z,100345.09
2018-05-31T08:56:55.021Z,100347.17
2018-05-31T08:58:01.141Z,100348.02
2018-05-31T08:59:07.729Z,100346.52
2018-05-31T09:00:13.766Z,100343.39
2018-05-31T09:01:19.844Z,100344.04
2018-05-31T09:02:25.968Z,100343.42
2018-05-31T09:03:34.242Z,100340.64
2018-05-31T09:04:40.437Z,100339.52
2018-05-31T09:05:46.426Z,100340.02
2018-05-31T09:06:52.546Z,100344.84
2018-05-31T09:07:58.689Z,100339.72
2018-05-31T09:09:03.818Z,100341.84
2018-05-31T09:10:10.535Z,100344.33
2018-05-31T09:11:17.140Z,100347.45
2018-05-31T09:12:23.170Z,100346.52
2018-05-31T09:13:29.196Z,100344.88
2018-05-31T09:14:35.277Z,100352.96
2018-05-31T09:15:41.411Z,100351.89
2018-05-31T09:16:48.485Z,100349.78
2018-05-31T09:17:54.625Z,100349.99
2018-05-31T09:19:00.757Z,100349.52
2018-05-31T09:20:06.865Z,100345.23
2018-05-31T09:21:13.957Z,100347.59
2018-05-31T09:22:22.309Z,100343.54
2018-05-31T09:23:29.097Z,100336.94
2018-05-31T09:24:35.159Z,100341.97
2018-05-31T09:25:41.946Z,100339.05
2018-05-31T09:26:48.657Z,100335.02
2018-05-31T09:27:54.803Z,100334.39
2018-05-31T09:29:00.849Z,100335.10
2018-05-31T09:30:06.573Z,100337.13
2018-05-31T09:31:12.672Z,100341.34
2018-05-31T09:32:18.816Z,100340.98
2018-05-31T09:33:25.024Z,100332.02
2018-05-31T09:34:31.156Z,100335.28
2018-05-31T09:35:37.612Z,100337.73
2018-05-31T09:36:44.860Z,100341.88
2018-05-31T09:37:50.871Z,100340.09
2018-05-31T09:38:57.044Z,100346.66
2018-05-31T09:40:03.112Z,100339.63
2018-05-31T09:41:09.246Z,100343.86
2018-05-31T09:42:16.273Z,100333.38
2018-05-31T09:43:22.003Z,100336.75
2018-05-31T09:44:28.188Z,100341.74
2018-05-31T09:45:34.260Z,100339.14
2018-05-31T09:46:40.441Z,100340.27
2018-05-31T09:47:47.564Z,100341.09
2018-05-31T09:48:53.743Z,100347.86
2018-05-31T09:49:59.828Z,100344.32
2018-05-31T09:51:05.264Z,100333.84
2018-05-31T09:52:11.614Z,100329.89
2018-05-31T09:53:17.651Z,100339.91
2018-05-31T09:54:24.281Z,100341.31
2018-05-31T09:55:30.260Z,100338.72
2018-05-31T09:56:36.160Z,100335.63
2018-05-31T09:57:50.167Z,100338.20
2018-05-31T09:58:56.172Z,100341.21
2018-05-31T10:00:02.257Z,100342.28
2018-05-31T10:01:07.620Z,100342.45
2018-05-31T10:02:13.572Z,100340.97
2018-05-31T10:03:19.675Z,100346.92
2018-05-31T10:04:25.787Z,100344.14
2018-05-31T10:05:31.518Z,100338.02
2018-05-31T10:06:37.626Z,100345.13
2018-05-31T10:07:43.780Z,100340.27
2018-05-31T10:08:49.930Z,100338.87
2018-05-31T10:09:56.030Z,100336.94
2018-05-31T10:11:02.107Z,100337.87
2018-05-31T10:12:08.213Z,100329.95
2018-05-31T10:13:15.263Z,100331.69
2018-05-31T10:14:21.330Z,100335.11
2018-05-31T10:15:27.357Z,100333.47
2018-05-31T10:16:33.496Z,100327.95
2018-05-31T10:17:40.618Z,100329.44
2018-05-31T10:18:46.811Z,100333.76
2018-05-31T10:19:52.666Z,100335.69
2018-05-31T10:20:58.817Z,100331.40
2018-05-31T10:22:04.632Z,100332.20
2018-05-31T10:23:10.914Z,100327.13
2018-05-31T10:24:16.768Z,100324.95
2018-05-31T10:25:22.833Z,100327.14
2018-05-31T10:26:28.954Z,100321.80
2018-05-31T10:27:35.061Z,100323.16
2018-05-31T10:28:41.152Z,100326.02
2018-05-31T10:29:47.305Z,100326.56
2018-05-31T10:30:52.974Z,100327.81
2018-05-31T10:31:59.265Z,100322.20
2018-05-31T10:33:06.016Z,100325.73
2018-05-31T10:34:12.843Z,100318.05
2018-05-31T10:35:18.937Z,100319.34
2018-05-31T10:36:25.034Z,100321.87
2018-05-31T10:37:31.164Z,100322.58
2018-05-31T10:38:37.248Z,100317.30
2018-05-31T10:39:44.101Z,100319.79
2018-05-31T10:40:49.844Z,100320.66
2018-05-31T10:41:55.976Z,100314.84
2018-05-31T10:43:02.089Z,100314.88
2018-05-31T10:44:08.242Z,100318.41
2018-05-31T10:45:14.305Z,100313.89
2018-05-31T10:46:20.926Z,100315.09
2018-05-31T10:47:27.029Z,100307.64
2018-05-31T10:48:32.493Z,100301.46
2018-05-31T10:49:39.170Z,100306.56
2018-05-31T10:50:45.175Z,100306.39
2018-05-31T10:51:51.761Z,100309.31
2018-05-31T10:52:57.871Z,100312.06
2018-05-31T10:54:04.492Z,100305.78
2018-05-31T10:55:10.149Z,100301.33
2018-05-31T10:56:16.304Z,100301.50
2018-05-31T10:57:23.425Z,100308.58
2018-05-31T10:58:29.432Z,100301.47
2018-05-31T10:59:35.567Z,100309.00
2018-05-31T11:00:41.656Z,100306.45
2018-05-31T11:01:47.749Z,100305.36
2018-05-31T11:02:54.194Z,100301.40
2018-05-31T11:04:00.284Z,100297.63
2018-05-31T11:05:06.429Z,100300.97
2018-05-31T11:06:12.512Z,100297.84
2018-05-31T11:07:18.596Z,100297.70
2018-05-31T11:08:24.964Z,100295.95
2018-05-31T11:09:31.421Z,100296.03
2018-05-31T11:10:37.438Z,100293.12
2018-05-31T11:11:43.541Z,100291.26
2018-05-31T11:12:49.673Z,100295.09
2018-05-31T11:13:55.753Z,100297.41
2018-05-31T11:15:01.918Z,100290.63
2018-05-31T11:16:08.213Z,100290.16
2018-05-31T11:17:14.287Z,100291.77
2018-05-31T11:18:20.930Z,100286.32
2018-05-31T11:19:27.009Z,100286.20
2018-05-31T11:20:33.156Z,100292.95
2018-05-31T11:21:39.093Z,100292.99
2018-05-31T11:22:46.301Z,100286.66
2018-05-31T11:23:52.456Z,100286.83
2018-05-31T11:24:58.287Z,100284.50
2018-05-31T11:26:04.377Z,100283.11
2018-05-31T11:27:10.481Z,100279.40
2018-05-31T11:28:16.576Z,100273.07
2018-05-31T11:29:22.389Z,100281.30
2018-05-31T11:30:29.549Z,100275.72
2018-05-31T11:31:35.413Z,100280.46
2018-05-31T11:32:41.572Z,100276.77
2018-05-31T11:33:47.708Z,100275.72
2018-05-31T11:34:54.044Z,100276.77
2018-05-31T11:36:01.903Z,100273.98
2018-05-31T11:37:07.665Z,100273.06
2018-05-31T11:38:13.893Z,100270.05
2018-05-31T11:39:20.217Z,100275.93
2018-05-31T11:40:26.353Z,100269.77
2018-05-31T11:41:32.488Z,100273.76
2018-05-31T11:42:38.843Z,100264.08
2018-05-31T11:43:44.920Z,100271.73
2018-05-31T11:44:51.024Z,100261.28
2018-05-31T11:45:57.860Z,100267.09
2018-05-31T11:47:04.670Z,100268.64
2018-05-31T11:48:10.500Z,100270.27
2018-05-31T11:49:16.619Z,100269.00
2018-05-31T11:50:23.693Z,100266.33
2018-05-31T11:51:29.856Z,100263.69
2018-05-31T11:52:35.656Z,100255.59
2018-05-31T11:53:41.764Z,100261.56
2018-05-31T11:54:47.869Z,100255.62
2018-05-31T11:55:53.811Z,100257.98
2018-05-31T11:56:59.681Z,100255.09
2018-05-31T11:58:05.429Z,100256.52
2018-05-31T11:59:11.278Z,100254.14
2018-05-31T12:00:17.416Z,100251.17
2018-05-31T12:01:23.491Z,100248.72
2018-05-31T12:02:29.513Z,100245.00
2018-05-31T12:03:35.637Z,100242.77
2018-05-31T12:04:41.722Z,100241.55
2018-05-31T12:05:47.852Z,100242.16
2018-05-31T12:06:53.939Z,100244.51
2018-05-31T12:08:00.037Z,100241.50
2018-05-31T12:09:06.639Z,100242.86
2018-05-31T12:10:12.656Z,100236.23
2018-05-31T12:11:20.619Z,100231.52
2018-05-31T12:12:26.732Z,100240.78
2018-05-31T12:13:32.754Z,100227.34
2018-05-31T12:14:38.925Z,100235.39
2018-05-31T12:15:44.717Z,100231.31
2018-05-31T12:16:52.420Z,100236.34
2018-05-31T12:17:59.620Z,100238.51
2018-05-31T12:19:05.913Z,100240.32
2018-05-31T12:20:12.941Z,100230.68
2018-05-31T12:21:19.087Z,100235.98
2018-05-31T12:22:25.955Z,100237.12
2018-05-31T12:23:32.058Z,100240.05
2018-05-31T12:24:38.102Z,100231.80
2018-05-31T12:25:44.229Z,100238.98
2018-05-31T12:26:50.418Z,100235.78
2018-05-31T12:27:56.528Z,100237.39
2018-05-31T12:29:02.593Z,100239.17
2018-05-31T12:30:08.693Z,100244.77
2018-05-31T12:31:14.974Z,100243.48
2018-05-31T12:32:20.717Z,100243.74
2018-05-31T12:33:26.838Z,100243.63
2018-05-31T12:34:32.978Z,100241.11
2018-05-31T12:35:39.403Z,100241.49
2018-05-31T12:36:45.498Z,100241.13
2018-05-31T12:37:51.886Z,100235.06
2018-05-31T12:38:58.677Z,100230.31
2018-05-31T12:40:04.949Z,100232.59